Time;durP1;ratioP1;P1;durP2;ratioP2;P2;SDS_P1;SDS_P2;PMS_P1;PMS_P2;Temp;Humidity;BMP_temperature;BMP_pressure;BME280_temperature;BME280_humidity;BME280_pressure;Samples;Min_cycle;Max_cycle;Signal;HPM_P1;HPM_P2
2023/01/22 00:01:02;;;;;;;35.00;17.67;;;;;;;;;;4990506;28;20761;-76
2023/01/22 00:03:28;;;;;;;39.10;19.83;;;;;;;;;;4973129;28;20281;-77
2023/01/22 00:05:56;;;;;;;37.70;18.33;;;;;;;;;;4986005;28;20273;-76
2023/01/22 00:08:22;;;;;;;36.20;18.60;;;;;;;;;;4991112;28;20026;-76
2023/01/22 00:10:50;;;;;;;36.20;20.13;;;;;;;;;;4991271;28;20269;-76
2023/01/22 00:13:15;;;;;;;32.70;16.63;;;;;;;;;;4970307;28;20038;-75
2023/01/22 00:15:44;;;;;;;31.23;15.97;;;;;;;;;;4990904;28;20288;-76
2023/01/22 00:18:10;;;;;;;33.50;19.20;;;;;;;;;;4969166;28;20022;-76
2023/01/22 00:20:36;;;;;;;36.33;18.83;;;;;;;;;;4969659;28;20308;-75
2023/01/22 00:23:02;;;;;;;36.37;18.87;;;;;;;;;;4989091;28;20022;-76
2023/01/22 00:25:28;;;;;;;30.97;16.13;;;;;;;;;;4970274;28;20285;-77
2023/01/22 00:27:54;;;;;;;30.87;16.27;;;;;;;;;;4970704;28;20280;-76
2023/01/22 00:30:20;;;;;;;32.13;16.80;;;;;;;;;;4989699;28;20026;-77
2023/01/22 00:32:46;;;;;;;30.73;18.23;;;;;;;;;;4969610;28;20285;-76
2023/01/22 00:35:12;;;;;;;30.23;16.77;;;;;;;;;;4984846;28;20361;-76
2023/01/22 00:37:39;;;;;;;35.20;17.83;;;;;;;;;;4984658;28;20768;-76
2023/01/22 00:40:07;;;;;;;31.63;17.07;;;;;;;;;;4991739;28;20356;-76
2023/01/22 00:42:38;;;;;;;30.93;17.87;;;;;;;;;;4974357;28;20289;-77
2023/01/22 00:45:04;;;;;;;29.90;15.17;;;;;;;;;;4990516;28;20339;-76
2023/01/22 00:47:30;;;;;;;27.60;15.70;;;;;;;;;;4971268;28;20316;-76
2023/01/22 00:49:56;;;;;;;28.23;16.17;;;;;;;;;;4972206;28;20316;-76
2023/01/22 00:52:24;;;;;;;20.97;12.27;;;;;;;;;;4989998;28;21122;-76
2023/01/22 00:54:50;;;;;;;30.03;16.93;;;;;;;;;;4987713;28;20041;-76
2023/01/22 00:57:20;;;;;;;29.13;17.17;;;;;;;;;;4973290;28;20762;-77
2023/01/22 00:59:46;;;;;;;28.20;15.53;;;;;;;;;;4972859;28;20938;-76
2023/01/22 01:02:12;;;;;;;32.67;17.93;;;;;;;;;;4990506;28;20376;-76
2023/01/22 01:04:38;;;;;;;34.80;18.00;;;;;;;;;;4972909;28;20289;-76
2023/01/22 01:07:04;;;;;;;30.77;17.20;;;;;;;;;;4972933;28;20777;-76
2023/01/22 01:09:30;;;;;;;31.33;16.97;;;;;;;;;;4971528;28;20285;-77
2023/01/22 01:11:56;;;;;;;32.13;17.90;;;;;;;;;;4975377;28;20030;-76
2023/01/22 01:14:22;;;;;;;34.17;17.73;;;;;;;;;;4990729;28;20082;-76
2023/01/22 01:16:49;;;;;;;32.63;17.70;;;;;;;;;;4990383;28;20089;-76
2023/01/22 01:19:16;;;;;;;32.47;18.93;;;;;;;;;;4990580;28;20886;-77
2023/01/22 01:21:42;;;;;;;32.80;18.47;;;;;;;;;;4972680;28;20419;-76
2023/01/22 01:24:08;;;;;;;33.97;18.67;;;;;;;;;;4988973;28;20426;-76
2023/01/22 01:26:34;;;;;;;31.63;15.73;;;;;;;;;;4970581;28;20838;-76
2023/01/22 01:29:01;;;;;;;40.23;19.30;;;;;;;;;;4985974;28;20730;-76
2023/01/22 01:31:27;;;;;;;33.73;18.80;;;;;;;;;;4984425;28;20292;-77
2023/01/22 01:33:53;;;;;;;32.93;18.93;;;;;;;;;;4991828;28;22043;-76
2023/01/22 01:36:20;;;;;;;31.73;18.97;;;;;;;;;;4975933;28;20459;-76
2023/01/22 01:38:50;;;;;;;33.67;18.27;;;;;;;;;;4990355;28;20273;-76
2023/01/22 01:41:17;;;;;;;30.60;18.27;;;;;;;;;;4977051;28;20280;-77
2023/01/22 01:43:43;;;;;;;32.07;18.57;;;;;;;;;;4994260;28;20296;-77
2023/01/22 01:46:19;;;;;;;34.20;18.07;;;;;;;;;;4977214;28;21235;-77
2023/01/22 01:48:47;;;;;;;31.83;17.30;;;;;;;;;;4990735;28;20462;-76
2023/01/22 01:51:33;;;;;;;34.90;19.80;;;;;;;;;;4976559;28;20273;-76
2023/01/22 01:54:00;;;;;;;35.77;20.37;;;;;;;;;;4992226;28;20838;-76
2023/01/22 01:56:28;;;;;;;37.10;20.37;;;;;;;;;;4972329;28;20277;-76
2023/01/22 01:58:58;;;;;;;35.40;20.63;;;;;;;;;;4993076;28;20281;-77
2023/01/22 02:01:24;;;;;;;45.20;21.97;;;;;;;;;;4988448;28;20992;-76
2023/01/22 02:03:50;;;;;;;39.50;20.57;;;;;;;;;;4972292;28;20281;-76
2023/01/22 02:06:17;;;;;;;42.80;22.30;;;;;;;;;;4975526;28;20274;-76
2023/01/22 02:08:45;;;;;;;43.90;22.60;;;;;;;;;;4988068;28;20274;-77
2023/01/22 02:11:12;;;;;;;42.87;22.70;;;;;;;;;;4987769;28;20312;-76
2023/01/22 02:13:40;;;;;;;43.77;23.00;;;;;;;;;;4974989;28;20312;-76
2023/01/22 02:16:08;;;;;;;45.67;25.07;;;;;;;;;;4975795;28;20339;-76
2023/01/22 02:18:34;;;;;;;44.80;25.07;;;;;;;;;;4986697;28;20289;-77
2023/01/22 02:21:00;;;;;;;49.30;27.50;;;;;;;;;;4975164;28;20274;-76
2023/01/22 02:23:29;;;;;;;48.90;26.57;;;;;;;;;;4968734;28;20292;-76
2023/01/22 02:25:56;;;;;;;50.77;27.07;;;;;;;;;;4987997;28;20356;-77
2023/01/22 02:28:22;;;;;;;49.93;26.93;;;;;;;;;;4991791;28;20343;-76
2023/01/22 02:30:48;;;;;;;51.83;26.37;;;;;;;;;;4972262;28;20273;-76
2023/01/22 02:33:14;;;;;;;44.20;23.00;;;;;;;;;;4993784;28;20888;-76
2023/01/22 02:35:40;;;;;;;48.67;26.80;;;;;;;;;;4992353;28;20306;-76
2023/01/22 02:38:06;;;;;;;49.33;26.73;;;;;;;;;;4977247;28;20324;-75
2023/01/22 02:40:32;;;;;;;49.60;25.83;;;;;;;;;;4996343;28;20085;-76
2023/01/22 02:42:59;;;;;;;37.80;19.10;;;;;;;;;;4972324;28;20025;-76
2023/01/22 02:45:25;;;;;;;42.53;23.70;;;;;;;;;;4989432;28;20335;-77
2023/01/22 02:47:53;;;;;;;42.83;24.00;;;;;;;;;;5001603;28;20341;-76
2023/01/22 02:50:19;;;;;;;45.80;24.13;;;;;;;;;;4976391;28;20614;-76
2023/01/22 02:52:45;;;;;;;48.93;25.07;;;;;;;;;;4970594;28;20730;-76
2023/01/22 02:55:13;;;;;;;43.37;23.90;;;;;;;;;;4995394;28;20058;-76
2023/01/22 02:57:39;;;;;;;43.13;23.43;;;;;;;;;;4989503;28;20026;-77
2023/01/22 03:00:06;;;;;;;37.53;20.07;;;;;;;;;;4989052;28;20324;-76
2023/01/22 03:02:32;;;;;;;45.83;24.03;;;;;;;;;;4976453;28;20049;-76
2023/01/22 03:05:02;;;;;;;42.73;23.70;;;;;;;;;;4993138;28;20281;-76
2023/01/22 03:07:40;;;;;;;45.40;24.53;;;;;;;;;;4971676;28;20038;-76
2023/01/22 03:10:06;;;;;;;39.97;23.03;;;;;;;;;;4976011;28;20309;-76
2023/01/22 03:23:33;;;;;;;45.47;24.27;;;;;;;;;;4994208;28;20986;-76
2023/01/22 03:25:59;;;;;;;41.57;23.03;;;;;;;;;;4988806;28;20289;-76
2023/01/22 03:28:25;;;;;;;31.87;17.37;;;;;;;;;;4995627;28;20285;-76
2023/01/22 03:30:51;;;;;;;41.37;23.10;;;;;;;;;;4974009;28;20277;-76
2023/01/22 03:33:17;;;;;;;44.80;23.40;;;;;;;;;;4969703;28;20741;-76
2023/01/22 03:35:43;;;;;;;39.87;22.60;;;;;;;;;;4987475;28;20297;-76
2023/01/22 03:38:09;;;;;;;39.63;23.13;;;;;;;;;;4969871;28;20270;-75
2023/01/22 03:40:35;;;;;;;42.13;24.83;;;;;;;;;;4970368;28;20289;-76
2023/01/22 03:43:01;;;;;;;42.07;21.63;;;;;;;;;;4971656;28;20085;-76
2023/01/22 03:45:27;;;;;;;42.77;23.57;;;;;;;;;;4973918;28;20088;-76
2023/01/22 03:47:54;;;;;;;43.53;24.60;;;;;;;;;;4970728;28;20102;-76
2023/01/22 03:50:20;;;;;;;42.33;23.23;;;;;;;;;;4988395;28;20030;-76
2023/01/22 03:52:46;;;;;;;42.80;23.30;;;;;;;;;;4971417;28;20282;-76
2023/01/22 03:55:12;;;;;;;42.10;24.27;;;;;;;;;;4974271;28;20768;-76
2023/01/22 03:57:37;;;;;;;43.93;24.83;;;;;;;;;;4970756;28;20296;-76
2023/01/22 04:00:06;;;;;;;42.97;24.87;;;;;;;;;;4988061;28;20478;-75
2023/01/22 04:02:33;;;;;;;43.20;23.97;;;;;;;;;;4991903;28;20031;-76
2023/01/22 04:05:01;;;;;;;40.27;22.47;;;;;;;;;;4992128;28;20278;-76
2023/01/22 04:07:27;;;;;;;43.87;23.90;;;;;;;;;;4987056;28;20309;-75
2023/01/22 04:09:53;;;;;;;47.73;26.00;;;;;;;;;;4992777;28;20303;-76
2023/01/22 04:12:19;;;;;;;43.03;23.47;;;;;;;;;;4974435;28;20149;-76
2023/01/22 04:14:45;;;;;;;40.13;24.30;;;;;;;;;;4989562;28;20038;-76
2023/01/22 04:17:11;;;;;;;42.57;22.87;;;;;;;;;;4970189;28;20367;-76
2023/01/22 04:19:37;;;;;;;40.47;23.70;;;;;;;;;;4973682;28;20114;-76
2023/01/22 04:22:03;;;;;;;41.60;23.30;;;;;;;;;;4990611;28;20030;-76
2023/01/22 04:24:29;;;;;;;41.80;22.93;;;;;;;;;;4985224;28;20273;-76
2023/01/22 04:26:55;;;;;;;33.70;18.77;;;;;;;;;;4986041;28;20384;-75
2023/01/22 04:29:21;;;;;;;37.03;21.83;;;;;;;;;;4989854;28;20038;-76
2023/01/22 04:31:47;;;;;;;39.87;23.60;;;;;;;;;;4989902;28;20497;-76
2023/01/22 04:34:13;;;;;;;41.83;21.13;;;;;;;;;;4973508;28;21944;-76
2023/01/22 04:36:39;;;;;;;39.13;22.23;;;;;;;;;;4990451;28;20273;-75
2023/01/22 04:39:07;;;;;;;41.33;24.17;;;;;;;;;;4973331;28;20309;-76
2023/01/22 04:41:33;;;;;;;37.93;22.23;;;;;;;;;;4990387;28;20088;-76
2023/01/22 04:43:59;;;;;;;38.83;22.90;;;;;;;;;;4984528;28;20382;-76
2023/01/22 04:46:25;;;;;;;39.47;22.37;;;;;;;;;;4973547;28;20038;-75
2023/01/22 04:48:54;;;;;;;34.97;20.40;;;;;;;;;;4989943;28;20462;-75
2023/01/22 04:51:20;;;;;;;37.90;21.67;;;;;;;;;;4972662;28;20038;-76
2023/01/22 04:53:46;;;;;;;44.37;22.47;;;;;;;;;;4990347;28;20300;-75
2023/01/22 04:56:12;;;;;;;38.57;21.80;;;;;;;;;;4984799;28;20026;-76
2023/01/22 04:58:40;;;;;;;38.00;22.63;;;;;;;;;;4969585;28;20277;-76
2023/01/22 05:01:06;;;;;;;37.63;22.30;;;;;;;;;;4968860;28;20014;-75
2023/01/22 05:03:32;;;;;;;39.27;21.60;;;;;;;;;;4990360;28;20372;-76
2023/01/22 05:06:01;;;;;;;34.37;21.50;;;;;;;;;;4973045;28;20424;-76
2023/01/22 05:08:29;;;;;;;30.73;19.57;;;;;;;;;;4975328;28;20041;-76
2023/01/22 05:10:59;;;;;;;38.83;22.27;;;;;;;;;;4993443;28;20297;-76
2023/01/22 05:13:25;;;;;;;32.80;20.23;;;;;;;;;;4989060;28;20341;-76
2023/01/22 05:15:51;;;;;;;36.97;21.93;;;;;;;;;;4976771;28;20371;-76
2023/01/22 05:18:17;;;;;;;33.17;20.17;;;;;;;;;;4993284;28;20026;-76
2023/01/22 05:20:43;;;;;;;34.73;20.70;;;;;;;;;;4988456;28;20372;-75
2023/01/22 05:23:09;;;;;;;34.43;20.93;;;;;;;;;;4992355;28;20375;-76
2023/01/22 05:25:35;;;;;;;33.80;21.00;;;;;;;;;;4971692;28;20424;-76
2023/01/22 05:28:01;;;;;;;32.43;20.10;;;;;;;;;;4988754;28;21151;-76
2023/01/22 05:30:27;;;;;;;27.47;16.67;;;;;;;;;;4991515;28;20349;-76
2023/01/22 05:32:56;;;;;;;26.97;17.20;;;;;;;;;;4976111;28;20030;-76
2023/01/22 05:35:23;;;;;;;36.07;20.53;;;;;;;;;;4989039;28;20073;-75
2023/01/22 05:37:49;;;;;;;32.53;19.80;;;;;;;;;;4975656;28;20754;-76
2023/01/22 05:40:15;;;;;;;31.80;20.33;;;;;;;;;;4989758;28;20308;-75
2023/01/22 05:42:41;;;;;;;31.40;18.27;;;;;;;;;;4993570;28;20030;-76
2023/01/22 05:45:08;;;;;;;30.00;20.00;;;;;;;;;;4974715;28;20277;-76
2023/01/22 05:47:34;;;;;;;33.10;20.30;;;;;;;;;;4974169;28;20034;-75
2023/01/22 05:50:00;;;;;;;32.90;18.60;;;;;;;;;;4988174;28;20287;-75
2023/01/22 05:52:26;;;;;;;32.57;19.93;;;;;;;;;;4993422;28;20030;-75
2023/01/22 05:54:52;;;;;;;33.20;19.13;;;;;;;;;;4973092;28;20034;-76
2023/01/22 05:57:18;;;;;;;30.87;18.60;;;;;;;;;;4978622;28;20281;-76
2023/01/22 05:59:47;;;;;;;27.70;18.10;;;;;;;;;;4991233;28;20114;-76
2023/01/22 06:02:13;;;;;;;33.70;20.73;;;;;;;;;;4986508;28;20332;-76
2023/01/22 06:04:39;;;;;;;33.07;20.60;;;;;;;;;;4992602;28;20285;-76
2023/01/22 06:07:05;;;;;;;30.77;18.83;;;;;;;;;;4976394;28;20041;-76
2023/01/22 06:09:30;;;;;;;31.23;18.90;;;;;;;;;;4972220;28;20420;-75
2023/01/22 06:11:56;;;;;;;21.40;13.03;;;;;;;;;;4992835;28;20045;-76
2023/01/22 06:14:22;;;;;;;33.93;20.40;;;;;;;;;;4992114;28;20105;-76
2023/01/22 06:16:48;;;;;;;30.30;18.50;;;;;;;;;;4975362;28;20026;-75
2023/01/22 06:19:14;;;;;;;32.13;19.00;;;;;;;;;;4975453;28;20435;-76
2023/01/22 06:21:42;;;;;;;30.47;19.40;;;;;;;;;;4975783;28;20288;-76
2023/01/22 06:24:08;;;;;;;29.00;19.07;;;;;;;;;;4971346;28;20104;-76
2023/01/22 06:26:34;;;;;;;28.03;18.40;;;;;;;;;;4996756;28;20342;-76
2023/01/22 06:29:00;;;;;;;34.27;19.50;;;;;;;;;;4976330;28;20282;-74
2023/01/22 06:31:30;;;;;;;26.93;19.23;;;;;;;;;;4977407;28;20026;-76
2023/01/22 06:33:56;;;;;;;31.70;19.53;;;;;;;;;;4977475;28;20084;-76
2023/01/22 06:36:22;;;;;;;33.30;20.57;;;;;;;;;;4972371;28;20273;-76
2023/01/22 06:38:48;;;;;;;28.23;18.13;;;;;;;;;;4972576;28;20307;-76
2023/01/22 06:41:14;;;;;;;31.07;20.27;;;;;;;;;;4972848;28;20320;-76
2023/01/22 06:43:40;;;;;;;29.73;20.30;;;;;;;;;;4989120;28;20364;-76
2023/01/22 06:46:08;;;;;;;29.17;19.47;;;;;;;;;;4988378;28;20355;-76
2023/01/22 06:48:34;;;;;;;26.87;17.03;;;;;;;;;;4987857;28;20446;-76
2023/01/22 06:51:00;;;;;;;28.17;15.23;;;;;;;;;;4988002;28;20278;-76
2023/01/22 06:53:27;;;;;;;32.73;18.33;;;;;;;;;;4991599;28;20566;-75
2023/01/22 06:55:55;;;;;;;31.57;20.47;;;;;;;;;;4975169;28;20273;-75
2023/01/22 06:58:21;;;;;;;30.37;19.80;;;;;;;;;;4974710;28;20923;-76
2023/01/22 07:00:47;;;;;;;31.07;20.53;;;;;;;;;;4975291;28;20270;-76
2023/01/22 07:03:15;;;;;;;28.07;19.67;;;;;;;;;;4986883;28;20082;-76
2023/01/22 07:05:41;;;;;;;32.63;21.53;;;;;;;;;;4991825;28;20022;-74
2023/01/22 07:08:07;;;;;;;30.83;20.50;;;;;;;;;;4985351;28;20643;-74
2023/01/22 07:10:35;;;;;;;27.30;17.20;;;;;;;;;;4987477;28;20318;-76
2023/01/22 07:13:03;;;;;;;29.23;18.67;;;;;;;;;;4985386;28;20349;-76
2023/01/22 07:15:29;;;;;;;30.53;20.33;;;;;;;;;;4991610;28;20297;-76
2023/01/22 07:17:55;;;;;;;30.67;20.03;;;;;;;;;;4973827;28;22036;-76
2023/01/22 07:20:22;;;;;;;29.53;18.87;;;;;;;;;;4970176;28;20296;-76
2023/01/22 07:22:50;;;;;;;27.23;18.73;;;;;;;;;;4991811;28;20026;-76
2023/01/22 07:25:16;;;;;;;29.43;19.00;;;;;;;;;;4987076;28;20776;-76
2023/01/22 07:27:43;;;;;;;29.73;19.73;;;;;;;;;;4985854;28;20273;-76
2023/01/22 07:30:10;;;;;;;27.93;17.97;;;;;;;;;;4974203;28;20324;-75
2023/01/22 07:32:36;;;;;;;29.37;18.93;;;;;;;;;;4987742;28;20286;-76
2023/01/22 07:35:04;;;;;;;31.50;18.73;;;;;;;;;;4992077;28;20297;-76
2023/01/22 07:37:30;;;;;;;30.67;18.17;;;;;;;;;;4985541;28;20288;-76
2023/01/22 07:39:56;;;;;;;29.03;18.77;;;;;;;;;;4992729;28;20356;-76
2023/01/22 07:42:28;;;;;;;28.70;18.40;;;;;;;;;;4971003;28;20041;-76
2023/01/22 07:44:56;;;;;;;26.77;17.23;;;;;;;;;;4990383;28;20465;-75
2023/01/22 07:47:22;;;;;;;24.83;16.40;;;;;;;;;;4992723;28;20277;-76
2023/01/22 07:49:48;;;;;;;26.63;16.67;;;;;;;;;;4968605;28;20281;-76
2023/01/22 07:52:14;;;;;;;29.47;18.73;;;;;;;;;;4973456;28;20129;-76
2023/01/22 07:54:42;;;;;;;22.17;13.77;;;;;;;;;;4985298;28;20573;-76
2023/01/22 07:57:14;;;;;;;28.40;19.00;;;;;;;;;;4987382;28;20030;-76
2023/01/22 07:59:40;;;;;;;27.63;18.53;;;;;;;;;;4973284;28;20293;-76
2023/01/22 08:02:06;;;;;;;24.20;16.33;;;;;;;;;;4975332;28;20273;-76
2023/01/22 08:04:34;;;;;;;27.90;18.40;;;;;;;;;;4976978;28;20036;-75
2023/01/22 08:07:00;;;;;;;23.33;14.50;;;;;;;;;;4971339;28;20034;-76
2023/01/22 08:09:26;;;;;;;26.10;16.87;;;;;;;;;;4968636;28;20281;-75
2023/01/22 08:11:52;;;;;;;27.07;17.67;;;;;;;;;;4973942;28;20045;-76
2023/01/22 08:14:18;;;;;;;25.37;17.23;;;;;;;;;;4987402;28;20447;-76
2023/01/22 08:16:44;;;;;;;27.40;17.40;;;;;;;;;;4969952;28;20316;-76
2023/01/22 08:19:10;;;;;;;26.03;17.60;;;;;;;;;;4973637;28;20312;-76
2023/01/22 08:21:39;;;;;;;26.33;18.27;;;;;;;;;;4989982;28;20082;-80
2023/01/22 08:24:06;;;;;;;28.30;18.17;;;;;;;;;;4987973;28;20376;-76
2023/01/22 08:26:32;;;;;;;26.10;17.07;;;;;;;;;;4973217;28;20768;-74
2023/01/22 08:28:58;;;;;;;26.17;17.67;;;;;;;;;;4969170;28;20341;-75
2023/01/22 08:31:24;;;;;;;26.67;17.20;;;;;;;;;;4990248;28;20084;-76
2023/01/22 08:33:50;;;;;;;26.53;18.60;;;;;;;;;;4984903;28;20041;-75
2023/01/22 08:36:16;;;;;;;28.57;17.63;;;;;;;;;;4973352;28;20793;-76
2023/01/22 08:38:45;;;;;;;24.73;16.43;;;;;;;;;;4990503;28;20077;-76
2023/01/22 08:41:11;;;;;;;29.83;17.47;;;;;;;;;;4969110;28;20089;-76
2023/01/22 08:43:37;;;;;;;24.53;16.60;;;;;;;;;;4976090;28;20917;-76
2023/01/22 08:46:03;;;;;;;24.63;17.03;;;;;;;;;;4989764;28;20034;-76
2023/01/22 08:48:29;;;;;;;25.50;16.13;;;;;;;;;;4978448;28;20149;-76
2023/01/22 08:50:55;;;;;;;25.00;15.77;;;;;;;;;;4977144;28;20308;-76
2023/01/22 08:53:25;;;;;;;24.80;16.73;;;;;;;;;;4974438;28;20034;-76
2023/01/22 08:55:51;;;;;;;21.73;15.27;;;;;;;;;;4992105;28;20726;-76
2023/01/22 08:58:20;;;;;;;24.90;16.27;;;;;;;;;;4977532;28;20278;-76
2023/01/22 09:00:46;;;;;;;24.00;15.70;;;;;;;;;;4989926;28;20060;-76
2023/01/22 09:03:12;;;;;;;27.70;15.50;;;;;;;;;;4989584;28;20364;-76
2023/01/22 09:05:39;;;;;;;22.23;15.10;;;;;;;;;;4977456;28;20526;-76
2023/01/22 09:08:09;;;;;;;22.20;14.53;;;;;;;;;;4992961;28;20278;-76
2023/01/22 09:10:35;;;;;;;21.30;15.23;;;;;;;;;;4992594;28;20278;-76
2023/01/22 09:13:01;;;;;;;22.97;15.10;;;;;;;;;;4976760;28;20273;-76
2023/01/22 09:15:27;;;;;;;20.60;13.67;;;;;;;;;;4993880;28;20054;-76
2023/01/22 09:17:53;;;;;;;21.00;14.33;;;;;;;;;;4989274;28;20285;-76
2023/01/22 09:20:19;;;;;;;23.03;14.33;;;;;;;;;;4977144;28;20282;-76
2023/01/22 09:22:46;;;;;;;24.40;15.93;;;;;;;;;;4989856;28;20058;-76
2023/01/22 09:25:12;;;;;;;20.87;14.80;;;;;;;;;;4976431;28;20030;-76
2023/01/22 09:27:38;;;;;;;25.03;14.40;;;;;;;;;;4988046;28;20320;-75
2023/01/22 09:30:04;;;;;;;19.87;14.47;;;;;;;;;;4989047;28;21322;-76
2023/01/22 09:32:32;;;;;;;19.87;14.13;;;;;;;;;;4991928;28;20284;-76
2023/01/22 09:34:58;;;;;;;19.97;13.97;;;;;;;;;;4976675;28;20289;-76
2023/01/22 09:37:27;;;;;;;17.80;14.03;;;;;;;;;;4993470;28;20286;-76
2023/01/22 09:39:53;;;;;;;18.67;13.40;;;;;;;;;;4990449;28;20030;-76
2023/01/22 09:42:39;;;;;;;19.40;12.97;;;;;;;;;;4987818;28;20304;-76
2023/01/22 09:45:09;;;;;;;21.70;14.83;;;;;;;;;;4994155;28;20030;-76
2023/01/22 09:47:37;;;;;;;21.57;14.97;;;;;;;;;;4976500;28;20357;-76
2023/01/22 09:50:11;;;;;;;20.93;14.97;;;;;;;;;;4970771;28;20295;-76
2023/01/22 09:52:38;;;;;;;21.53;15.03;;;;;;;;;;4992651;28;20292;-76
2023/01/22 09:55:15;;;;;;;23.97;15.80;;;;;;;;;;4989075;28;20301;-77
2023/01/22 09:57:44;;;;;;;23.60;15.97;;;;;;;;;;4992488;28;20313;-75
2023/01/22 10:00:16;;;;;;;23.50;15.53;;;;;;;;;;4975721;28;20802;-77
2023/01/22 10:02:47;;;;;;;22.52;15.38;;;;;;;;;;4974497;28;20308;-76
2023/01/22 10:05:16;;;;;;;21.43;16.33;;;;;;;;;;4996366;28;20096;-77
2023/01/22 10:07:46;;;;;;;20.37;14.60;;;;;;;;;;4986749;28;20286;-76
2023/01/22 10:10:23;;;;;;;19.23;13.97;;;;;;;;;;4993897;28;20270;-77
2023/01/22 10:13:10;;;;;;;19.90;14.27;;;;;;;;;;4972922;28;20276;-74
2023/01/22 10:15:36;;;;;;;22.50;13.67;;;;;;;;;;4996208;28;20308;-76
2023/01/22 10:18:07;;;;;;;17.10;11.60;;;;;;;;;;4971327;28;20269;-77
2023/01/22 10:20:33;;;;;;;18.57;11.93;;;;;;;;;;4995532;28;20312;-76
2023/01/22 10:23:08;;;;;;;21.20;14.03;;;;;;;;;;4990712;28;20657;-77
2023/01/22 10:25:34;;;;;;;21.63;14.23;;;;;;;;;;4989106;28;20076;-76
2023/01/22 10:28:03;;;;;;;21.23;14.37;;;;;;;;;;4972660;28;20359;-76
2023/01/22 10:30:29;;;;;;;20.57;13.23;;;;;;;;;;4975985;28;20547;-77
2023/01/22 10:32:58;;;;;;;20.90;14.47;;;;;;;;;;4971873;28;20288;-76
2023/01/22 10:35:24;;;;;;;23.70;14.37;;;;;;;;;;4993349;28;20298;-76
2023/01/22 10:37:52;;;;;;;22.07;15.00;;;;;;;;;;4992572;28;20607;-76
2023/01/22 10:40:24;;;;;;;18.97;12.57;;;;;;;;;;4989984;28;20336;-76
2023/01/22 10:43:19;;;;;;;22.67;15.23;;;;;;;;;;4984926;28;20384;-77
2023/01/22 10:45:53;;;;;;;18.23;13.20;;;;;;;;;;4971361;28;20172;-76
2023/01/22 10:48:19;;;;;;;19.57;14.53;;;;;;;;;;4976338;28;20273;-76
2023/01/22 10:50:45;;;;;;;18.47;12.90;;;;;;;;;;4987793;28;20285;-75
2023/01/22 10:53:17;;;;;;;19.60;14.53;;;;;;;;;;4992939;28;20044;-76
2023/01/22 10:55:50;;;;;;;21.67;15.35;;;;;;;;;;4969971;28;20317;-76
2023/01/22 10:58:17;;;;;;;20.20;14.80;;;;;;;;;;4987972;28;20034;-76
2023/01/22 11:00:43;;;;;;;20.80;13.10;;;;;;;;;;4991061;28;20125;-76
2023/01/22 11:03:13;;;;;;;21.03;14.53;;;;;;;;;;4991484;28;20269;-76
2023/01/22 11:05:42;;;;;;;18.77;12.33;;;;;;;;;;4974496;28;20580;-75
2023/01/22 11:08:12;;;;;;;20.33;13.97;;;;;;;;;;4995087;28;20281;-76
2023/01/22 11:10:47;;;;;;;16.50;11.60;;;;;;;;;;4979173;28;20277;-76
2023/01/22 11:13:15;;;;;;;21.50;14.93;;;;;;;;;;4991608;28;20654;-76
2023/01/22 11:15:52;;;;;;;20.40;13.70;;;;;;;;;;4993357;28;20281;-76
2023/01/22 11:18:25;;;;;;;21.27;14.90;;;;;;;;;;4988778;28;20332;-76
2023/01/22 11:20:54;;;;;;;22.47;15.13;;;;;;;;;;4975455;28;20746;-75
2023/01/22 11:23:23;;;;;;;19.90;14.23;;;;;;;;;;4975087;28;20305;-76
2023/01/22 11:25:54;;;;;;;22.77;16.10;;;;;;;;;;4989482;28;20366;-75
2023/01/22 11:28:28;;;;;;;20.00;14.10;;;;;;;;;;4969688;28;20278;-76
2023/01/22 11:31:01;;;;;;;20.33;13.83;;;;;;;;;;4985879;28;20420;-76
2023/01/22 11:33:35;;;;;;;19.77;13.97;;;;;;;;;;4989428;28;20286;-75
2023/01/22 11:36:06;;;;;;;19.33;13.90;;;;;;;;;;4988688;28;20285;-76
2023/01/22 11:38:53;;;;;;;21.63;15.03;;;;;;;;;;4988472;28;20273;-76
2023/01/22 11:41:38;;;;;;;21.47;14.33;;;;;;;;;;4982473;28;20310;-76
2023/01/22 11:44:13;;;;;;;20.57;14.83;;;;;;;;;;4975269;28;20281;-76
2023/01/22 11:46:58;;;;;;;21.57;14.67;;;;;;;;;;4991572;28;20285;-75
2023/01/22 11:49:27;;;;;;;22.70;16.13;;;;;;;;;;4975187;28;20741;-77
2023/01/22 11:52:05;;;;;;;22.07;15.13;;;;;;;;;;4986695;28;20274;-75
2023/01/22 11:54:34;;;;;;;21.57;15.00;;;;;;;;;;4974896;28;21308;-77
2023/01/22 11:57:14;;;;;;;22.47;15.50;;;;;;;;;;4974117;28;20285;-77
2023/01/22 11:59:55;;;;;;;24.87;17.03;;;;;;;;;;4975102;28;20281;-76
2023/01/22 12:02:42;;;;;;;22.73;14.93;;;;;;;;;;4987607;28;20296;-76
2023/01/22 12:05:40;;;;;;;23.80;15.87;;;;;;;;;;4990755;28;20324;-76
2023/01/22 12:08:16;;;;;;;23.37;16.33;;;;;;;;;;4949504;28;20754;-76
2023/01/22 12:11:00;;;;;;;25.27;16.40;;;;;;;;;;4990959;28;20408;-75
2023/01/22 12:13:30;;;;;;;26.00;15.93;;;;;;;;;;4973961;28;20281;-76
2023/01/22 12:15:59;;;;;;;26.10;17.33;;;;;;;;;;4992955;28;20285;-76
2023/01/22 12:18:42;;;;;;;27.53;17.43;;;;;;;;;;4984384;28;20269;-76
2023/01/22 12:21:27;;;;;;;26.23;16.90;;;;;;;;;;4986661;28;20274;-76
2023/01/22 12:23:58;;;;;;;25.17;17.17;;;;;;;;;;4978497;28;20277;-76
2023/01/22 12:26:25;;;;;;;26.63;16.97;;;;;;;;;;4986887;28;20288;-76
2023/01/22 12:29:04;;;;;;;23.90;15.87;;;;;;;;;;4984999;28;20309;-76
2023/01/22 12:31:32;;;;;;;26.67;17.57;;;;;;;;;;4990232;28;20301;-76
2023/01/22 12:34:01;;;;;;;25.97;17.10;;;;;;;;;;4992185;28;20344;-77
2023/01/22 12:36:28;;;;;;;27.20;18.20;;;;;;;;;;4990211;28;20277;-76
2023/01/22 12:38:58;;;;;;;25.07;16.20;;;;;;;;;;4988786;28;21028;-76
2023/01/22 12:41:24;;;;;;;24.40;15.93;;;;;;;;;;4989748;28;20308;-76
2023/01/22 12:44:02;;;;;;;27.77;18.77;;;;;;;;;;4973977;28;20274;-76
2023/01/22 12:46:33;;;;;;;25.63;16.87;;;;;;;;;;4986057;28;20034;-76
2023/01/22 12:49:04;;;;;;;26.80;17.30;;;;;;;;;;4986266;28;20284;-76
2023/01/22 12:51:36;;;;;;;24.77;17.30;;;;;;;;;;4972528;28;21077;-76
2023/01/22 12:54:08;;;;;;;26.08;17.52;;;;;;;;;;4986316;28;20340;-76
2023/01/22 12:56:34;;;;;;;22.75;16.40;;;;;;;;;;4982902;28;20035;-76
2023/01/22 12:59:00;;;;;;;23.30;16.13;;;;;;;;;;4973894;28;20035;-76
2023/01/22 13:01:34;;;;;;;25.27;16.30;;;;;;;;;;4974124;28;20844;-76
2023/01/22 13:04:04;;;;;;;24.53;16.87;;;;;;;;;;4990459;28;20034;-77
2023/01/22 13:06:30;;;;;;;25.60;16.70;;;;;;;;;;4990946;28;20281;-76
2023/01/22 13:08:56;;;;;;;23.87;17.17;;;;;;;;;;4986772;28;20273;-77
2023/01/22 13:11:31;;;;;;;25.07;17.33;;;;;;;;;;4986493;28;20365;-77
2023/01/22 13:14:16;;;;;;;29.17;16.20;;;;;;;;;;4974153;28;20277;-77
2023/01/22 13:16:50;;;;;;;19.63;13.47;;;;;;;;;;4989971;28;20335;-76
2023/01/22 13:19:19;;;;;;;24.53;17.07;;;;;;;;;;4985378;28;20282;-76
2023/01/22 13:21:45;;;;;;;24.23;17.17;;;;;;;;;;4989957;28;20273;-76
2023/01/22 13:24:13;;;;;;;24.67;17.00;;;;;;;;;;4969630;28;20854;-75
2023/01/22 13:26:42;;;;;;;25.30;16.60;;;;;;;;;;4971011;28;20285;-77
2023/01/22 13:29:30;;;;;;;23.67;16.33;;;;;;;;;;4994044;28;20381;-75
2023/01/22 13:31:58;;;;;;;25.23;16.87;;;;;;;;;;4988110;28;21153;-75
2023/01/22 13:34:24;;;;;;;26.17;18.90;;;;;;;;;;4995157;28;20281;-75
2023/01/22 13:36:51;;;;;;;22.33;16.30;;;;;;;;;;4975249;28;20046;-76
2023/01/22 13:39:28;;;;;;;28.40;17.77;;;;;;;;;;4976416;28;21241;-75
2023/01/22 13:41:56;;;;;;;24.40;15.73;;;;;;;;;;4989154;28;20281;-76
2023/01/22 13:44:26;;;;;;;25.97;17.77;;;;;;;;;;4976922;28;20172;-75
2023/01/22 13:46:52;;;;;;;27.93;17.77;;;;;;;;;;4987518;28;21855;-76
2023/01/22 13:49:18;;;;;;;28.33;17.50;;;;;;;;;;4993811;28;20279;-76
2023/01/22 13:51:45;;;;;;;24.07;16.30;;;;;;;;;;4976931;28;20277;-76
2023/01/22 13:54:17;;;;;;;24.57;17.63;;;;;;;;;;4976561;28;21574;-76
2023/01/22 13:56:43;;;;;;;25.77;17.73;;;;;;;;;;4986048;28;20916;-76
2023/01/22 13:59:20;;;;;;;25.73;17.47;;;;;;;;;;4975600;28;20032;-75
2023/01/22 14:01:47;;;;;;;28.07;18.50;;;;;;;;;;4972896;28;20276;-75
2023/01/22 14:04:36;;;;;;;26.60;17.53;;;;;;;;;;4972817;28;20792;-76
2023/01/22 14:07:03;;;;;;;26.53;17.37;;;;;;;;;;4988588;28;20282;-76
2023/01/22 14:09:33;;;;;;;29.13;18.00;;;;;;;;;;4992656;28;20346;-76
2023/01/22 14:12:00;;;;;;;30.37;18.87;;;;;;;;;;4971343;28;20665;-76
2023/01/22 14:14:26;;;;;;;27.97;19.23;;;;;;;;;;4976520;28;20285;-76
2023/01/22 14:16:55;;;;;;;29.20;19.27;;;;;;;;;;4971054;28;21007;-77
2023/01/22 14:19:21;;;;;;;27.27;17.50;;;;;;;;;;4972007;28;20265;-76
2023/01/22 14:21:47;;;;;;;29.33;18.20;;;;;;;;;;4975133;28;20276;-75
2023/01/22 14:24:13;;;;;;;29.27;18.17;;;;;;;;;;4986844;28;20773;-76
2023/01/22 14:26:39;;;;;;;28.60;18.97;;;;;;;;;;4987601;28;20619;-76
2023/01/22 14:29:05;;;;;;;28.67;19.50;;;;;;;;;;4974850;28;20273;-76
2023/01/22 14:31:31;;;;;;;29.20;19.40;;;;;;;;;;4973580;28;20380;-76
2023/01/22 14:33:59;;;;;;;33.77;20.27;;;;;;;;;;4995521;28;20034;-76